Time;durP1;ratioP1;P1;durP2;ratioP2;P2;SDS_P1;SDS_P2;PMS_P1;PMS_P2;Temp;Humidity;BMP_temperature;BMP_pressure;BME280_temperature;BME280_humidity;BME280_pressure;Samples;Min_cycle;Max_cycle;Signal;HPM_P1;HPM_P2
2022/02/01 00:02:58;;;;;;;2.33;1.13;;;;;;;;;;4508226;28;20120;-68
2022/02/01 00:05:16;;;;;;;4.30;1.10;;;;;;;;;;4509748;28;20620;-67
2022/02/01 00:07:42;;;;;;;3.75;1.15;;;;;;;;;;4509887;28;20045;-67
2022/02/01 00:10:08;;;;;;;3.33;1.25;;;;;;;;;;4510212;28;20072;-68
2022/02/01 00:36:53;;;;;;;6.50;1.88;;;;;;;;;;4508665;28;20069;-67
2022/02/01 00:39:08;;;;;;;3.63;1.50;;;;;;;;;;4509672;28;20555;-67
2022/02/01 00:41:25;;;;;;;6.10;1.60;;;;;;;;;;4509755;28;20077;-67
2022/02/01 00:43:36;;;;;;;5.03;2.00;;;;;;;;;;4511100;28;20505;-67
2022/02/01 00:45:47;;;;;;;5.22;1.80;;;;;;;;;;4507742;28;20101;-67
2022/02/01 00:47:57;;;;;;;6.30;1.97;;;;;;;;;;4506984;28;20507;-67
2022/02/01 00:50:11;;;;;;;4.70;1.63;;;;;;;;;;4509963;28;20037;-67
2022/02/01 00:52:22;;;;;;;5.65;1.90;;;;;;;;;;4510312;28;20592;-67
2022/02/01 00:54:33;;;;;;;6.57;2.08;;;;;;;;;;4517412;28;20222;-68
2022/02/01 00:56:44;;;;;;;5.73;2.20;;;;;;;;;;4508291;28;20483;-67
2022/02/01 00:58:54;;;;;;;8.13;2.20;;;;;;;;;;4508007;28;20030;-68
2022/02/01 01:01:05;;;;;;;4.77;1.90;;;;;;;;;;4508272;28;20033;-68
2022/02/01 01:03:15;;;;;;;6.13;2.10;;;;;;;;;;4508172;28;31826;-67
2022/02/01 01:05:26;;;;;;;5.63;2.27;;;;;;;;;;4510708;28;20026;-68
2022/02/01 01:07:36;;;;;;;5.63;1.80;;;;;;;;;;4510462;28;20060;-68
2022/02/01 01:09:47;;;;;;;7.03;2.03;;;;;;;;;;4508751;28;20034;-67
2022/02/01 01:11:58;;;;;;;4.30;1.90;;;;;;;;;;4507527;28;20482;-68
2022/02/01 01:19:10;;;;;;;6.53;2.20;;;;;;;;;;4508374;28;20048;-67
2022/02/01 01:38:56;;;;;;;7.63;2.15;;;;;;;;;;4516105;28;20034;-67
2022/02/01 01:53:17;;;;;;;7.13;2.03;;;;;;;;;;4508674;28;20141;-67
2022/02/01 01:55:27;;;;;;;6.65;1.77;;;;;;;;;;4509060;28;20644;-67
2022/02/01 01:57:39;;;;;;;7.13;1.80;;;;;;;;;;4507304;28;25417;-67
2022/02/01 01:59:49;;;;;;;5.05;1.63;;;;;;;;;;4507809;28;20022;-67
2022/02/01 02:02:00;;;;;;;5.20;1.60;;;;;;;;;;4507300;28;24813;-67
2022/02/01 02:04:10;;;;;;;5.93;1.80;;;;;;;;;;4508199;28;20033;-67
2022/02/01 02:06:21;;;;;;;5.40;1.60;;;;;;;;;;4508005;28;20030;-67
2022/02/01 02:08:31;;;;;;;4.90;1.60;;;;;;;;;;4508353;28;22137;-67
2022/02/01 02:10:57;;;;;;;4.83;1.60;;;;;;;;;;4506047;28;20033;-67
2022/02/01 02:15:57;;;;;;;5.35;1.35;;;;;;;;;;4508073;28;20034;-66
2022/02/01 02:18:04;;;;;;;6.97;2.00;;;;;;;;;;4509458;28;20034;-67
2022/02/01 02:20:15;;;;;;;6.03;1.80;;;;;;;;;;4508240;28;20030;-66
2022/02/01 02:22:25;;;;;;;6.57;1.77;;;;;;;;;;4508067;28;29500;-67
2022/02/01 02:24:40;;;;;;;6.57;1.70;;;;;;;;;;4507549;28;20072;-66
2022/02/01 02:26:51;;;;;;;4.63;1.65;;;;;;;;;;4508038;28;20049;-66
2022/02/01 02:29:03;;;;;;;7.85;2.15;;;;;;;;;;4481229;28;20014;-67
2022/02/01 02:31:16;;;;;;;4.43;1.20;;;;;;;;;;4505409;28;20711;-66
2022/02/01 02:33:27;;;;;;;5.78;1.65;;;;;;;;;;4510620;28;20148;-67
2022/02/01 02:35:49;;;;;;;5.50;1.75;;;;;;;;;;4508264;28;20550;-67
2022/02/01 02:38:05;;;;;;;4.88;1.73;;;;;;;;;;4507793;28;20018;-67
2022/02/01 02:40:32;;;;;;;7.50;2.03;;;;;;;;;;4507067;28;20044;-67
2022/02/01 02:45:15;;;;;;;4.10;1.48;;;;;;;;;;4507297;28;20125;-67
2022/02/01 02:47:26;;;;;;;2.90;1.33;;;;;;;;;;4508471;28;20052;-66
2022/02/01 02:49:36;;;;;;;7.03;1.80;;;;;;;;;;4506419;28;20060;-66
2022/02/01 02:51:47;;;;;;;5.07;1.53;;;;;;;;;;4507884;28;20025;-67
2022/02/01 02:53:57;;;;;;;5.20;1.83;;;;;;;;;;4513799;28;20021;-66
2022/02/01 02:56:08;;;;;;;5.33;1.67;;;;;;;;;;4507562;28;20060;-66
2022/02/01 02:58:18;;;;;;;4.67;1.70;;;;;;;;;;4505642;28;29124;-68
2022/02/01 03:00:29;;;;;;;7.87;1.87;;;;;;;;;;4516071;28;20029;-67
2022/02/01 03:02:39;;;;;;;5.70;1.30;;;;;;;;;;4503850;28;25577;-67
2022/02/01 03:04:50;;;;;;;7.43;1.63;;;;;;;;;;4506507;28;43317;-67
2022/02/01 03:07:02;;;;;;;6.13;1.70;;;;;;;;;;4508210;28;20037;-67
2022/02/01 03:09:14;;;;;;;4.22;1.35;;;;;;;;;;4513573;28;20120;-66
2022/02/01 03:11:25;;;;;;;6.30;1.77;;;;;;;;;;4507165;28;20126;-67
2022/02/01 03:13:36;;;;;;;8.47;1.77;;;;;;;;;;4496787;28;41241;-66
2022/02/01 03:16:04;;;;;;;5.18;1.70;;;;;;;;;;4489882;28;20081;-67
2022/02/01 03:20:43;;;;;;;5.50;1.67;;;;;;;;;;4507201;28;20036;-66
2022/02/01 03:22:54;;;;;;;4.53;1.77;;;;;;;;;;4508267;28;20076;-67
2022/02/01 03:25:04;;;;;;;6.30;1.97;;;;;;;;;;4508339;28;20026;-67
2022/02/01 03:27:15;;;;;;;7.45;1.95;;;;;;;;;;4511187;28;20092;-67
2022/02/01 03:29:26;;;;;;;5.10;1.53;;;;;;;;;;4497425;28;20400;-66
2022/02/01 03:31:36;;;;;;;7.87;2.00;;;;;;;;;;4511445;28;20030;-66
2022/02/01 03:33:47;;;;;;;4.57;1.60;;;;;;;;;;4511643;28;20022;-67
2022/02/01 03:35:57;;;;;;;4.73;1.33;;;;;;;;;;4509957;28;20025;-67
2022/02/01 03:38:08;;;;;;;6.30;1.87;;;;;;;;;;4509158;28;20562;-67
2022/02/01 03:40:20;;;;;;;4.50;1.60;;;;;;;;;;4508395;28;20128;-67
2022/02/01 03:42:31;;;;;;;4.70;1.55;;;;;;;;;;4509958;28;20074;-67
2022/02/01 03:44:41;;;;;;;4.07;1.63;;;;;;;;;;4509870;28;20557;-67
2022/02/01 03:47:27;;;;;;;5.23;1.67;;;;;;;;;;4509965;28;20133;-67
2022/02/01 03:49:38;;;;;;;5.22;1.80;;;;;;;;;;4510121;28;20042;-66
2022/02/01 03:51:49;;;;;;;5.18;1.70;;;;;;;;;;4507987;28;20492;-66
2022/02/01 03:53:59;;;;;;;5.17;1.40;;;;;;;;;;4518848;28;20018;-67
2022/02/01 03:56:09;;;;;;;4.80;1.43;;;;;;;;;;4510082;28;29777;-67
2022/02/01 03:58:20;;;;;;;4.30;1.40;;;;;;;;;;4518056;28;20053;-67
2022/02/01 04:00:31;;;;;;;3.57;1.40;;;;;;;;;;4511128;28;20025;-67
2022/02/01 04:02:41;;;;;;;4.35;1.50;;;;;;;;;;4510371;28;20037;-67
2022/02/01 04:04:53;;;;;;;4.77;1.40;;;;;;;;;;4507610;28;20045;-67
2022/02/01 04:07:05;;;;;;;4.22;1.50;;;;;;;;;;4511040;28;20045;-67
2022/02/01 04:09:15;;;;;;;5.38;1.70;;;;;;;;;;4510711;28;20038;-68
2022/02/01 04:11:26;;;;;;;4.33;1.67;;;;;;;;;;4509595;28;20403;-66
2022/02/01 04:13:36;;;;;;;5.30;1.53;;;;;;;;;;4511035;28;20631;-67
2022/02/01 04:15:47;;;;;;;5.87;1.50;;;;;;;;;;4510419;28;20021;-67
2022/02/01 04:17:57;;;;;;;5.70;1.80;;;;;;;;;;4508272;28;20032;-67
2022/02/01 04:20:08;;;;;;;6.00;1.67;;;;;;;;;;4508821;28;20025;-67
2022/02/01 04:22:19;;;;;;;5.90;1.97;;;;;;;;;;4509250;28;20474;-67
2022/02/01 04:24:31;;;;;;;4.20;1.40;;;;;;;;;;4509157;28;20402;-67
2022/02/01 04:26:42;;;;;;;4.85;1.23;;;;;;;;;;4509402;28;20104;-67
2022/02/01 04:28:52;;;;;;;5.60;1.20;;;;;;;;;;4509696;28;20021;-67
2022/02/01 04:31:02;;;;;;;3.63;1.50;;;;;;;;;;4509782;28;41062;-66
2022/02/01 04:33:13;;;;;;;4.37;1.33;;;;;;;;;;4508220;28;20072;-67
2022/02/01 04:35:26;;;;;;;4.50;1.40;;;;;;;;;;4508754;28;20025;-67
2022/02/01 04:37:37;;;;;;;3.30;1.25;;;;;;;;;;4509653;28;20036;-67
2022/02/01 04:39:47;;;;;;;5.30;1.67;;;;;;;;;;4517953;28;20036;-67
2022/02/01 04:41:58;;;;;;;3.63;1.37;;;;;;;;;;4508928;28;28581;-67
2022/02/01 04:44:08;;;;;;;4.03;1.17;;;;;;;;;;4508935;28;27952;-67
2022/02/01 04:46:20;;;;;;;5.43;1.30;;;;;;;;;;4508298;28;20030;-67
2022/02/01 04:48:30;;;;;;;;;;;;;;;;;;4507583;28;20659;-67
2022/02/01 04:50:41;;;;;;;4.45;1.45;;;;;;;;;;4509498;28;19960;-68
2022/02/01 04:52:54;;;;;;;4.57;1.37;;;;;;;;;;4510302;28;20033;-67
2022/02/01 04:55:05;;;;;;;5.47;1.52;;;;;;;;;;4494494;28;20490;-67
2022/02/01 04:57:15;;;;;;;3.20;1.50;;;;;;;;;;4509418;28;20034;-67
2022/02/01 04:59:25;;;;;;;5.33;1.70;;;;;;;;;;4509749;28;20988;-66
2022/02/01 05:01:39;;;;;;;3.53;1.30;;;;;;;;;;4511185;28;20547;-67
2022/02/01 05:03:50;;;;;;;3.67;1.50;;;;;;;;;;4509090;28;20029;-67
2022/02/01 05:06:01;;;;;;;3.83;1.35;;;;;;;;;;4509164;28;20021;-67
2022/02/01 05:08:13;;;;;;;4.82;1.63;;;;;;;;;;4509650;28;20037;-67
2022/02/01 05:10:23;;;;;;;3.70;1.27;;;;;;;;;;4509249;28;20024;-67
2022/02/01 05:12:36;;;;;;;4.30;1.43;;;;;;;;;;4507273;28;21180;-67
2022/02/01 05:14:48;;;;;;;4.45;1.42;;;;;;;;;;4509316;28;20537;-67
2022/02/01 05:17:00;;;;;;;5.88;1.75;;;;;;;;;;4507652;28;20077;-67
2022/02/01 05:19:16;;;;;;;4.28;1.38;;;;;;;;;;4495534;28;20708;-67
2022/02/01 05:21:27;;;;;;;5.03;1.80;;;;;;;;;;4517699;28;20029;-67
2022/02/01 05:23:37;;;;;;;4.60;1.87;;;;;;;;;;4507770;28;20033;-67
2022/02/01 05:25:48;;;;;;;4.50;1.50;;;;;;;;;;4508460;28;20399;-67
2022/02/01 05:28:00;;;;;;;3.63;1.23;;;;;;;;;;4509474;28;20266;-67
2022/02/01 05:30:10;;;;;;;;;;;;;;;;;;4507484;28;20608;-67
2022/02/01 05:32:24;;;;;;;5.50;1.83;;;;;;;;;;4508709;28;19936;-67
2022/02/01 05:34:34;;;;;;;5.00;1.90;;;;;;;;;;4508430;28;20026;-67
2022/02/01 05:36:45;;;;;;;3.97;1.50;;;;;;;;;;4509161;28;20030;-67
2022/02/01 05:38:56;;;;;;;4.47;1.80;;;;;;;;;;4507786;28;20026;-67
2022/02/01 05:41:10;;;;;;;5.07;2.00;;;;;;;;;;4510358;28;20069;-67
2022/02/01 05:43:25;;;;;;;4.60;1.42;;;;;;;;;;4506862;28;20073;-67
2022/02/01 05:45:37;;;;;;;6.50;2.08;;;;;;;;;;4507346;28;20026;-67
2022/02/01 05:47:48;;;;;;;3.72;1.42;;;;;;;;;;4508297;28;20041;-67
2022/02/01 05:49:58;;;;;;;4.55;1.75;;;;;;;;;;4507071;28;20034;-67
2022/02/01 05:52:09;;;;;;;3.63;1.73;;;;;;;;;;4508609;28;39328;-67
2022/02/01 05:54:21;;;;;;;4.35;1.73;;;;;;;;;;4522290;28;20172;-67
2022/02/01 05:56:31;;;;;;;5.18;1.80;;;;;;;;;;4507923;28;20034;-67
2022/02/01 05:58:43;;;;;;;4.30;2.07;;;;;;;;;;4509476;28;20034;-67
2022/02/01 06:00:53;;;;;;;6.78;2.83;;;;;;;;;;4508963;28;20017;-67
2022/02/01 06:03:04;;;;;;;8.03;3.47;;;;;;;;;;4507435;28;20021;-67
2022/02/01 06:05:14;;;;;;;9.48;4.50;;;;;;;;;;4508271;28;20119;-67
2022/02/01 06:07:25;;;;;;;3.50;1.30;;;;;;;;;;4507416;28;26249;-66
2022/02/01 06:09:35;;;;;;;4.93;1.40;;;;;;;;;;4507115;28;20035;-67
2022/02/01 06:11:46;;;;;;;5.50;1.47;;;;;;;;;;4506138;28;20085;-67
2022/02/01 06:13:56;;;;;;;3.50;1.27;;;;;;;;;;4508698;28;28622;-67
2022/02/01 06:16:07;;;;;;;4.90;1.70;;;;;;;;;;4507808;28;20025;-67
2022/02/01 06:18:17;;;;;;;5.80;1.70;;;;;;;;;;4507334;28;20018;-67
2022/02/01 06:20:28;;;;;;;4.00;1.37;;;;;;;;;;4507745;28;20029;-67
2022/02/01 06:22:39;;;;;;;4.37;1.47;;;;;;;;;;4507243;28;39134;-69
2022/02/01 06:24:49;;;;;;;4.10;1.52;;;;;;;;;;4506791;28;21086;-67
2022/02/01 06:27:00;;;;;;;4.23;1.50;;;;;;;;;;4516258;28;20042;-67
2022/02/01 06:29:10;;;;;;;3.57;1.33;;;;;;;;;;4508230;28;20112;-68
2022/02/01 06:31:21;;;;;;;4.20;1.50;;;;;;;;;;4508013;28;20022;-67
2022/02/01 06:33:31;;;;;;;4.43;1.83;;;;;;;;;;4507526;28;20026;-67
2022/02/01 06:35:42;;;;;;;4.00;1.73;;;;;;;;;;4506891;28;20491;-67
2022/02/01 06:37:52;;;;;;;5.80;1.80;;;;;;;;;;4507362;28;20030;-69
2022/02/01 06:40:04;;;;;;;5.70;1.80;;;;;;;;;;4507206;28;20124;-68
2022/02/01 06:42:16;;;;;;;4.10;1.58;;;;;;;;;;4480912;28;20382;-67
2022/02/01 06:44:26;;;;;;;6.72;2.05;;;;;;;;;;4508341;28;20026;-67
2022/02/01 06:46:37;;;;;;;3.40;1.30;;;;;;;;;;4510188;28;20030;-68
2022/02/01 06:48:47;;;;;;;5.53;1.33;;;;;;;;;;4505916;28;42908;-68
2022/02/01 06:50:58;;;;;;;5.57;1.77;;;;;;;;;;4516343;28;20026;-68
2022/02/01 06:53:09;;;;;;;5.03;1.93;;;;;;;;;;4505797;28;20014;-68
2022/02/01 06:55:31;;;;;;;4.95;1.65;;;;;;;;;;4507628;28;20034;-68
2022/02/01 06:57:41;;;;;;;5.72;1.55;;;;;;;;;;4507472;28;20018;-69
2022/02/01 06:59:52;;;;;;;4.47;1.63;;;;;;;;;;4506544;28;20057;-67
2022/02/01 07:02:03;;;;;;;5.27;1.63;;;;;;;;;;4506585;28;20034;-68
2022/02/01 07:04:13;;;;;;;5.63;1.80;;;;;;;;;;4507471;28;20025;-69
2022/02/01 07:06:25;;;;;;;5.03;1.80;;;;;;;;;;4516060;28;20065;-68
2022/02/01 07:08:35;;;;;;;5.00;1.73;;;;;;;;;;4505738;28;20033;-68
2022/02/01 07:10:46;;;;;;;4.73;1.70;;;;;;;;;;4509704;28;23243;-68
2022/02/01 07:12:56;;;;;;;6.80;1.43;;;;;;;;;;4507988;28;20864;-69
2022/02/01 07:15:07;;;;;;;3.20;1.40;;;;;;;;;;4504930;28;20026;-68
2022/02/01 07:17:18;;;;;;;4.83;1.60;;;;;;;;;;4522698;28;20033;-68
2022/02/01 07:19:28;;;;;;;5.83;1.60;;;;;;;;;;4506332;28;34290;-68
2022/02/01 07:21:39;;;;;;;4.17;1.50;;;;;;;;;;4508695;28;20513;-68
2022/02/01 07:23:49;;;;;;;5.88;1.90;;;;;;;;;;4508480;28;20061;-67
2022/02/01 07:26:01;;;;;;;3.33;1.23;;;;;;;;;;4506306;28;24067;-67
2022/02/01 07:28:12;;;;;;;3.85;1.38;;;;;;;;;;4507272;28;20686;-67
2022/02/01 07:30:27;;;;;;;3.35;1.52;;;;;;;;;;4507387;28;20762;-67
2022/02/01 07:32:40;;;;;;;4.72;1.45;;;;;;;;;;4507674;28;20546;-68
2022/02/01 07:34:51;;;;;;;4.45;1.60;;;;;;;;;;4515467;28;20018;-69
2022/02/01 07:37:05;;;;;;;3.47;1.40;;;;;;;;;;4491122;28;20034;-68
2022/02/01 07:39:21;;;;;;;2.97;1.40;;;;;;;;;;4508465;28;20029;-70
2022/02/01 07:41:31;;;;;;;4.30;1.52;;;;;;;;;;4490140;28;20018;-68
2022/02/01 07:43:41;;;;;;;3.53;1.57;;;;;;;;;;4505254;28;20030;-68
2022/02/01 07:45:52;;;;;;;5.43;1.43;;;;;;;;;;4487304;28;20121;-68
2022/02/01 07:48:03;;;;;;;4.23;1.73;;;;;;;;;;4504972;28;20033;-68
2022/02/01 07:50:13;;;;;;;4.53;1.60;;;;;;;;;;4505550;28;20034;-68
2022/02/01 07:52:24;;;;;;;6.30;1.70;;;;;;;;;;4508250;28;36916;-68
2022/02/01 07:54:37;;;;;;;4.83;1.77;;;;;;;;;;4506131;28;20034;-68
2022/02/01 07:56:47;;;;;;;4.18;1.50;;;;;;;;;;4497059;28;20655;-69
2022/02/01 07:58:58;;;;;;;5.07;1.80;;;;;;;;;;4504658;28;33627;-69
2022/02/01 08:01:08;;;;;;;3.40;1.63;;;;;;;;;;4505621;28;20041;-69
2022/02/01 08:03:19;;;;;;;5.73;1.77;;;;;;;;;;4506004;28;20017;-68
2022/02/01 08:05:30;;;;;;;3.73;1.40;;;;;;;;;;4514672;28;20034;-69
2022/02/01 08:07:41;;;;;;;;;;;;;;;;;;4507913;28;20049;-69
2022/02/01 08:10:02;;;;;;;5.35;1.60;;;;;;;;;;4505349;28;19909;-66
2022/02/01 08:13:33;;;;;;;;;;;;;;;;;;4508277;28;20034;-68
2022/02/01 08:17:02;;;;;;;4.57;1.80;;;;;;;;;;4507642;28;20022;-68
2022/02/01 08:19:23;;;;;;;4.95;1.58;;;;;;;;;;4508096;28;20123;-68
2022/02/01 08:21:42;;;;;;;4.18;1.50;;;;;;;;;;4507753;28;20228;-68
2022/02/01 08:23:53;;;;;;;3.45;1.55;;;;;;;;;;4506991;28;20018;-67
2022/02/01 08:26:04;;;;;;;5.17;1.83;;;;;;;;;;4508138;28;20334;-67
2022/02/01 08:28:14;;;;;;;4.43;1.40;;;;;;;;;;4508921;28;20414;-68
2022/02/01 08:30:25;;;;;;;5.40;1.60;;;;;;;;;;4508554;28;20045;-68
2022/02/01 08:32:36;;;;;;;3.20;1.40;;;;;;;;;;4508236;28;20022;-67
2022/02/01 08:34:46;;;;;;;5.03;1.57;;;;;;;;;;4509197;28;20026;-68
2022/02/01 08:36:56;;;;;;;5.57;1.70;;;;;;;;;;4512929;28;38206;-68
2022/02/01 08:39:07;;;;;;;5.37;1.67;;;;;;;;;;4507404;28;20049;-68
2022/02/01 08:41:17;;;;;;;4.27;1.70;;;;;;;;;;4508854;28;25823;-69
2022/02/01 08:43:28;;;;;;;3.73;1.40;;;;;;;;;;4510755;28;20033;-68
2022/02/01 08:45:38;;;;;;;2.97;1.40;;;;;;;;;;4509149;28;20050;-68
2022/02/01 08:47:54;;;;;;;3.40;1.67;;;;;;;;;;4508368;28;20077;-69
2022/02/01 08:50:05;;;;;;;5.07;1.92;;;;;;;;;;4508492;28;20037;-68
2022/02/01 08:52:38;;;;;;;3.58;1.48;;;;;;;;;;4508728;28;20020;-68
2022/02/01 08:54:52;;;;;;;6.80;1.77;;;;;;;;;;4507340;28;20065;-68
2022/02/01 08:57:21;;;;;;;3.75;1.73;;;;;;;;;;4516574;28;20040;-69
2022/02/01 08:59:32;;;;;;;4.22;1.50;;;;;;;;;;4508640;28;20073;-69
2022/02/01 09:01:42;;;;;;;3.77;1.70;;;;;;;;;;4509006;28;20113;-68
2022/02/01 09:03:53;;;;;;;4.57;1.70;;;;;;;;;;4516423;28;20034;-69
2022/02/01 09:06:04;;;;;;;4.17;1.50;;;;;;;;;;4509697;28;20567;-68
2022/02/01 09:08:15;;;;;;;3.57;1.43;;;;;;;;;;4506435;28;20140;-77
2022/02/01 09:10:25;;;;;;;6.10;1.75;;;;;;;;;;4509554;28;20033;-68
2022/02/01 09:12:35;;;;;;;3.27;1.10;;;;;;;;;;4508533;28;43337;-67
2022/02/01 09:14:47;;;;;;;3.43;1.20;;;;;;;;;;4509162;28;33533;-67
2022/02/01 09:17:00;;;;;;;6.50;1.63;;;;;;;;;;4517696;28;20048;-68
2022/02/01 09:19:11;;;;;;;4.30;1.75;;;;;;;;;;4507332;28;20033;-68
2022/02/01 09:21:21;;;;;;;4.33;1.53;;;;;;;;;;4507424;28;20014;-68
2022/02/01 09:23:34;;;;;;;4.10;1.30;;;;;;;;;;4510051;28;20989;-68
2022/02/01 09:25:44;;;;;;;3.03;1.20;;;;;;;;;;4510041;28;20037;-69
2022/02/01 09:27:55;;;;;;;4.27;1.30;;;;;;;;;;4516588;28;20900;-68
2022/02/01 09:30:06;;;;;;;3.77;1.30;;;;;;;;;;4510100;28;20029;-68
2022/02/01 09:32:17;;;;;;;5.32;1.48;;;;;;;;;;4495630;28;20419;-66
2022/02/01 09:34:29;;;;;;;3.10;1.20;;;;;;;;;;4505657;28;20037;-68
2022/02/01 09:36:40;;;;;;;4.13;1.48;;;;;;;;;;4509362;28;20037;-68
2022/02/01 09:38:52;;;;;;;3.80;1.42;;;;;;;;;;4507579;28;20603;-79
2022/02/01 09:41:03;;;;;;;2.78;1.10;;;;;;;;;;4509689;28;20021;-82
2022/02/01 09:43:14;;;;;;;;;;;;;;;;;;4509308;28;20030;-82
2022/02/01 09:45:27;;;;;;;3.65;1.23;;;;;;;;;;4509234;28;19909;-82
2022/02/01 09:47:41;;;;;;;3.58;1.42;;;;;;;;;;4509246;28;20215;-82
2022/02/01 09:49:51;;;;;;;3.25;1.23;;;;;;;;;;4506478;28;20030;-81
2022/02/01 09:52:02;;;;;;;2.00;0.90;;;;;;;;;;4509350;28;24815;-81
2022/02/01 09:54:13;;;;;;;3.40;1.20;;;;;;;;;;4509682;28;20152;-81
2022/02/01 09:56:23;;;;;;;3.13;1.40;;;;;;;;;;4508959;28;20037;-85
2022/02/01 09:58:36;;;;;;;3.90;1.33;;;;;;;;;;4510271;28;20036;-81
2022/02/01 10:00:52;;;;;;;2.75;1.20;;;;;;;;;;4508229;28;20030;-84
2022/02/01 10:03:04;;;;;;;3.38;1.13;;;;;;;;;;4507648;28;20029;-84
2022/02/01 10:05:16;;;;;;;3.13;1.20;;;;;;;;;;4508319;28;20014;-86
2022/02/01 10:07:26;;;;;;;3.58;1.10;;;;;;;;;;4507183;28;21270;-86
2022/02/01 10:09:55;;;;;;;3.73;1.30;;;;;;;;;;4508443;28;40887;-86
2022/02/01 10:12:15;;;;;;;2.70;1.02;;;;;;;;;;4512801;28;20997;-85
2022/02/01 10:14:36;;;;;;;3.03;1.23;;;;;;;;;;4507717;28;20029;-86
2022/02/01 10:16:56;;;;;;;;;;;;;;;;;;4509404;28;20029;-85
2022/02/01 10:19:11;;;;;;;2.13;1.00;;;;;;;;;;4510649;28;20739;-85
2022/02/01 10:21:22;;;;;;;1.70;1.02;;;;;;;;;;4517072;28;20769;-85
2022/02/01 10:23:33;;;;;;;3.00;1.00;;;;;;;;;;4509778;28;20014;-85
2022/02/01 10:26:01;;;;;;;1.33;0.80;;;;;;;;;;4508553;28;20116;-86
2022/02/01 10:28:12;;;;;;;2.08;1.00;;;;;;;;;;4508878;28;20041;-85
2022/02/01 10:30:42;;;;;;;1.00;0.77;;;;;;;;;;4511180;28;20021;-86
2022/02/01 10:37:35;;;;;;;2.10;1.00;;;;;;;;;;4509112;28;20025;-86
2022/02/01 10:39:58;;;;;;;1.67;1.10;;;;;;;;;;4500183;28;20050;-86
2022/02/01 10:42:10;;;;;;;2.10;1.00;;;;;;;;;;4507255;28;20034;-76
2022/02/01 10:44:22;;;;;;;1.65;0.73;;;;;;;;;;4505959;28;20030;-75
2022/02/01 10:46:32;;;;;;;2.08;0.90;;;;;;;;;;4523474;28;20535;-75
2022/02/01 10:48:48;;;;;;;1.67;1.00;;;;;;;;;;4505815;28;43492;-76
2022/02/01 10:51:12;;;;;;;2.22;1.08;;;;;;;;;;4505937;28;20076;-76
2022/02/01 10:53:22;;;;;;;1.80;1.00;;;;;;;;;;4510130;28;20025;-76
2022/02/01 10:55:34;;;;;;;1.33;1.00;;;;;;;;;;4506458;28;20025;-76
2022/02/01 10:57:44;;;;;;;1.83;1.17;;;;;;;;;;4506223;28;20120;-76
2022/02/01 10:59:55;;;;;;;1.23;0.70;;;;;;;;;;4507549;28;20026;-76
2022/02/01 11:02:06;;;;;;;1.00;0.70;;;;;;;;;;4507138;28;20030;-76
2022/02/01 11:04:19;;;;;;;0.50;0.50;;;;;;;;;;4509760;28;20053;-76
2022/02/01 11:06:34;;;;;;;1.80;0.60;;;;;;;;;;4475946;28;20357;-76
2022/02/01 11:08:46;;;;;;;0.68;0.50;;;;;;;;;;4522612;28;20068;-76
2022/02/01 11:11:01;;;;;;;0.70;0.50;;;;;;;;;;4505081;28;20020;-76
2022/02/01 11:13:12;;;;;;;0.65;0.50;;;;;;;;;;4506702;28;20041;-76
2022/02/01 11:15:24;;;;;;;0.53;0.53;;;;;;;;;;4493466;28;20030;-77
2022/02/01 11:17:41;;;;;;;1.05;0.45;;;;;;;;;;4492496;28;20080;-76
2022/02/01 11:19:57;;;;;;;0.95;0.60;;;;;;;;;;4516124;28;20160;-76
2022/02/01 11:22:20;;;;;;;0.45;0.40;;;;;;;;;;4505334;28;20042;-76
2022/02/01 11:24:36;;;;;;;0.68;0.50;;;;;;;;;;4504766;28;20470;-77
2022/02/01 11:27:02;;;;;;;0.75;0.55;;;;;;;;;;4508092;28;20029;-77
2022/02/01 11:29:32;;;;;;;1.35;0.50;;;;;;;;;;4509288;28;20033;-77
2022/02/01 11:31:48;;;;;;;0.85;0.50;;;;;;;;;;4507885;28;20029;-77
2022/02/01 11:33:59;;;;;;;0.60;0.50;;;;;;;;;;4499308;28;20113;-77
2022/02/01 11:36:14;;;;;;;0.50;0.50;;;;;;;;;;4503679;28;20105;-77
2022/02/01 11:38:25;;;;;;;0.65;0.45;;;;;;;;;;4494104;28;20038;-77
2022/02/01 11:40:42;;;;;;;0.83;0.50;;;;;;;;;;4506246;28;20057;-77
2022/02/01 11:43:00;;;;;;;0.93;0.50;;;;;;;;;;4508111;28;20033;-77
2022/02/01 11:45:11;;;;;;;0.40;0.40;;;;;;;;;;4509451;28;20024;-76
2022/02/01 11:47:34;;;;;;;0.50;0.50;;;;;;;;;;4518537;28;20517;-77
2022/02/01 11:49:53;;;;;;;0.30;0.30;;;;;;;;;;4509133;28;20076;-76
2022/02/01 11:52:06;;;;;;;0.70;0.43;;;;;;;;;;4498866;28;20030;-76
2022/02/01 11:54:19;;;;;;;0.40;0.40;;;;;;;;;;4494436;28;20128;-77
2022/02/01 11:56:32;;;;;;;1.17;0.50;;;;;;;;;;4480076;28;20058;-75
2022/02/01 11:58:46;;;;;;;0.85;0.50;;;;;;;;;;4501852;28;20069;-76
2022/02/01 12:00:58;;;;;;;0.75;0.63;;;;;;;;;;4524235;28;20107;-77
2022/02/01 12:03:16;;;;;;;0.50;0.50;;;;;;;;;;4502033;28;20022;-76
2022/02/01 12:05:32;;;;;;;0.40;0.40;;;;;;;;;;4518127;28;20029;-76
2022/02/01 12:07:50;;;;;;;0.50;0.50;;;;;;;;;;4509895;28;20049;-77
2022/02/01 12:10:11;;;;;;;0.40;0.40;;;;;;;;;;4494530;28;20030;-77
2022/02/01 12:12:23;;;;;;;0.63;0.60;;;;;;;;;;4511725;28;20033;-76
2022/02/01 12:14:34;;;;;;;0.30;0.30;;;;;;;;;;4508092;28;20030;-76
2022/02/01 12:16:49;;;;;;;0.30;0.30;;;;;;;;;;4495218;28;20034;-76
2022/02/01 12:19:06;;;;;;;0.40;0.40;;;;;;;;;;4484447;28;20030;-77
2022/02/01 12:21:25;;;;;;;0.32;0.32;;;;;;;;;;4509281;28;20579;-76
2022/02/01 12:23:36;;;;;;;0.73;0.57;;;;;;;;;;4509153;28;20037;-76
2022/02/01 12:25:46;;;;;;;0.50;0.40;;;;;;;;;;4509798;28;20022;-76
2022/02/01 12:27:57;;;;;;;0.40;0.40;;;;;;;;;;4476002;28;20651;-77
2022/02/01 12:30:09;;;;;;;0.30;0.30;;;;;;;;;;4508083;28;20505;-76
2022/02/01 12:32:21;;;;;;;0.50;0.50;;;;;;;;;;4517709;28;20018;-76
2022/02/01 12:34:32;;;;;;;0.30;0.30;;;;;;;;;;4512117;28;20679;-76
2022/02/01 12:36:45;;;;;;;0.50;0.50;;;;;;;;;;4508515;28;20056;-76
2022/02/01 12:39:03;;;;;;;0.38;0.38;;;;;;;;;;4511159;28;20026;-76
2022/02/01 12:41:15;;;;;;;0.77;0.40;;;;;;;;;;4509838;28;20030;-76
2022/02/01 12:43:30;;;;;;;0.43;0.40;;;;;;;;;;4506484;28;20134;-75
2022/02/01 12:45:52;;;;;;;0.43;0.40;;;;;;;;;;4500741;28;20033;-76
2022/02/01 12:48:04;;;;;;;0.75;0.40;;;;;;;;;;4508407;28;20050;-76
2022/02/01 12:50:15;;;;;;;0.40;0.40;;;;;;;;;;4508886;28;20133;-75
2022/02/01 12:52:32;;;;;;;0.57;0.50;;;;;;;;;;4511941;28;20736;-76
2022/02/01 12:54:43;;;;;;;0.40;0.40;;;;;;;;;;4508376;28;20124;-65
2022/02/01 12:57:09;;;;;;;0.50;0.50;;;;;;;;;;4506947;28;20059;-67
2022/02/01 12:59:22;;;;;;;0.43;0.40;;;;;;;;;;4507259;28;20034;-67
2022/02/01 13:01:37;;;;;;;0.43;0.43;;;;;;;;;;4508674;28;20097;-66
2022/02/01 13:03:48;;;;;;;0.32;0.32;;;;;;;;;;4510115;28;20038;-67
2022/02/01 13:06:01;;;;;;;0.27;0.27;;;;;;;;;;4509382;28;20054;-67
2022/02/01 13:15:33;;;;;;;0.50;0.50;;;;;;;;;;4506232;28;20601;-67
2022/02/01 13:18:14;;;;;;;0.88;0.70;;;;;;;;;;4509899;28;20034;-67
2022/02/01 13:20:21;;;;;;;0.80;0.68;;;;;;;;;;4506420;28;20040;-67
2022/02/01 13:22:33;;;;;;;0.63;0.50;;;;;;;;;;4508448;28;20663;-68
2022/02/01 13:24:44;;;;;;;0.50;0.50;;;;;;;;;;4507756;28;20018;-67
2022/02/01 13:26:54;;;;;;;0.40;0.40;;;;;;;;;;4508077;28;29538;-66
2022/02/01 13:29:05;;;;;;;0.40;0.30;;;;;;;;;;4507612;28;23006;-67
2022/02/01 13:31:19;;;;;;;0.30;0.30;;;;;;;;;;4506399;28;20121;-66
2022/02/01 13:33:29;;;;;;;0.60;0.38;;;;;;;;;;4508545;28;20018;-67
2022/02/01 13:35:44;;;;;;;0.30;0.30;;;;;;;;;;4508125;28;20426;-66
2022/02/01 13:37:55;;;;;;;0.30;0.30;;;;;;;;;;4523114;28;20581;-67
2022/02/01 13:40:06;;;;;;;0.90;0.40;;;;;;;;;;4503826;28;20063;-67
2022/02/01 13:42:17;;;;;;;0.50;0.50;;;;;;;;;;4494545;28;20022;-66
2022/02/01 13:44:31;;;;;;;0.52;0.50;;;;;;;;;;4507667;28;20237;-66
2022/02/01 13:46:44;;;;;;;0.52;0.50;;;;;;;;;;4509584;28;20026;-67
2022/02/01 13:49:02;;;;;;;0.60;0.60;;;;;;;;;;4509589;28;20045;-66
2022/02/01 13:51:12;;;;;;;0.30;0.30;;;;;;;;;;4508204;28;20053;-66
2022/02/01 13:53:23;;;;;;;0.60;0.50;;;;;;;;;;4507410;28;20080;-66
2022/02/01 13:55:37;;;;;;;0.63;0.40;;;;;;;;;;4507198;28;20026;-67
2022/02/01 13:57:47;;;;;;;0.40;0.40;;;;;;;;;;4509174;28;20054;-68
2022/02/01 14:00:10;;;;;;;0.90;0.53;;;;;;;;;;4507114;28;20100;-66
2022/02/01 14:02:33;;;;;;;0.50;0.50;;;;;;;;;;4507504;28;20046;-67
2022/02/01 14:04:54;;;;;;;0.40;0.40;;;;;;;;;;4505856;28;20033;-67
2022/02/01 14:09:43;;;;;;;0.57;0.40;;;;;;;;;;4505361;28;20037;-67
2022/02/01 14:33:42;;;;;;;0.55;0.50;;;;;;;;;;4520907;28;20608;-69
2022/02/01 14:35:52;;;;;;;0.40;0.40;;;;;;;;;;4505800;28;20037;-71
2022/02/01 14:38:31;;;;;;;0.40;0.40;;;;;;;;;;4507171;28;20032;-73
2022/02/01 14:45:16;;;;;;;0.38;0.38;;;;;;;;;;4514852;28;20847;-70
2022/02/01 14:47:26;;;;;;;0.93;0.50;;;;;;;;;;4505152;28;20037;-71
2022/02/01 14:49:37;;;;;;;0.83;0.50;;;;;;;;;;4504608;28;28234;-73
2022/02/01 14:51:47;;;;;;;0.40;0.40;;;;;;;;;;4506529;28;20051;-70
2022/02/01 14:53:57;;;;;;;0.33;0.33;;;;;;;;;;4506029;28;20030;-72
2022/02/01 14:56:18;;;;;;;0.50;0.50;;;;;;;;;;4505215;28;20065;-71
2022/02/01 15:03:45;;;;;;;0.55;0.50;;;;;;;;;;4507087;28;20652;-69
2022/02/01 15:13:10;;;;;;;0.50;0.50;;;;;;;;;;4507067;28;21222;-71
2022/02/01 15:15:20;;;;;;;0.43;0.40;;;;;;;;;;4509794;28;25727;-72
2022/02/01 15:17:30;;;;;;;0.50;0.50;;;;;;;;;;4515316;28;20049;-72
2022/02/01 15:19:41;;;;;;;0.60;0.47;;;;;;;;;;4506859;28;20065;-73
2022/02/01 15:21:52;;;;;;;0.50;0.50;;;;;;;;;;4508839;28;20046;-75
2022/02/01 15:24:02;;;;;;;0.60;0.50;;;;;;;;;;4509929;28;20466;-70